sensor_id;sensor_type;location;lat;lon;timestamp;pressure;altitude;pressure_sealevel;temperature;humidity
40946;BME280;55635;50.264;11.918;2022-07-29T00:01:22;95767.66;;;19.13;44.51
40946;BME280;55635;50.264;11.918;2022-07-29T00:04:03;95765.88;;;19.19;43.86
40946;BME280;55635;50.264;11.918;2022-07-29T00:06:44;95758.06;;;19.17;43.79
40946;BME280;55635;50.264;11.918;2022-07-29T00:09:25;95756.91;;;19.13;44.90
40946;BME280;55635;50.264;11.918;2022-07-29T00:12:06;95748.47;;;19.10;44.44
40946;BME280;55635;50.264;11.918;2022-07-29T00:14:47;95742.28;;;19.09;44.55
40946;BME280;55635;50.264;11.918;2022-07-29T00:17:28;95749.41;;;19.15;44.71
40946;BME280;55635;50.264;11.918;2022-07-29T00:20:10;95751.28;;;19.15;44.69
40946;BME280;55635;50.264;11.918;2022-07-29T00:22:51;95747.31;;;19.06;44.62
40946;BME280;55635;50.264;11.918;2022-07-29T00:25:32;95743.00;;;19.05;44.50
40946;BME280;55635;50.264;11.918;2022-07-29T00:28:13;95746.63;;;18.98;45.45
40946;BME280;55635;50.264;11.918;2022-07-29T00:30:54;95734.22;;;18.97;44.72
40946;BME280;55635;50.264;11.918;2022-07-29T00:33:35;95735.06;;;18.86;45.22
40946;BME280;55635;50.264;11.918;2022-07-29T00:36:16;95739.84;;;18.84;45.42
40946;BME280;55635;50.264;11.918;2022-07-29T00:38:57;95735.06;;;18.86;45.85
40946;BME280;55635;50.264;11.918;2022-07-29T00:41:38;95731.88;;;18.78;46.67
40946;BME280;55635;50.264;11.918;2022-07-29T00:44:20;95744.38;;;18.72;47.28
40946;BME280;55635;50.264;11.918;2022-07-29T00:47:01;95744.28;;;18.67;46.54
40946;BME280;55635;50.264;11.918;2022-07-29T00:49:42;95736.31;;;18.72;46.18
40946;BME280;55635;50.264;11.918;2022-07-29T00:52:24;95739.63;;;18.74;46.07
40946;BME280;55635;50.264;11.918;2022-07-29T00:55:08;95724.53;;;18.73;45.94
40946;BME280;55635;50.264;11.918;2022-07-29T00:57:50;95725.56;;;18.72;46.60
40946;BME280;55635;50.264;11.918;2022-07-29T01:00:32;95728.25;;;18.72;46.09
40946;BME280;55635;50.264;11.918;2022-07-29T01:03:13;95725.56;;;18.72;45.67
40946;BME280;55635;50.264;11.918;2022-07-29T01:05:54;95720.88;;;18.56;46.17
40946;BME280;55635;50.264;11.918;2022-07-29T01:08:36;95727.22;;;18.62;46.23
40946;BME280;55635;50.264;11.918;2022-07-29T01:11:18;95711.06;;;18.50;46.37
40946;BME280;55635;50.264;11.918;2022-07-29T01:14:00;95720.03;;;18.44;46.32
40946;BME280;55635;50.264;11.918;2022-07-29T01:20:31;95724.63;;;18.55;46.21
40946;BME280;55635;50.264;11.918;2022-07-29T01:27:01;95719.09;;;18.38;48.00
40946;BME280;55635;50.264;11.918;2022-07-29T01:29:55;95722.47;;;18.34;47.88
40946;BME280;55635;50.264;11.918;2022-07-29T01:32:38;95713.97;;;18.37;46.21
40946;BME280;55635;50.264;11.918;2022-07-29T01:35:33;95706.94;;;18.36;47.59
40946;BME280;55635;50.264;11.918;2022-07-29T01:38:21;95704.50;;;18.34;46.87
40946;BME280;55635;50.264;11.918;2022-07-29T01:41:09;95712.09;;;18.37;48.29
40946;BME280;55635;50.264;11.918;2022-07-29T01:43:59;95703.59;;;18.40;47.17
40946;BME280;55635;50.264;11.918;2022-07-29T01:47:00;95704.97;;;18.43;47.22
40946;BME280;55635;50.264;11.918;2022-07-29T01:49:51;95689.56;;;18.38;47.76
40946;BME280;55635;50.264;11.918;2022-07-29T01:52:43;95695.16;;;18.37;47.15
40946;BME280;55635;50.264;11.918;2022-07-29T01:55:31;95689.19;;;18.35;48.50
40946;BME280;55635;50.264;11.918;2022-07-29T01:58:14;95689.66;;;18.32;48.35
40946;BME280;55635;50.264;11.918;2022-07-29T02:01:00;95675.41;;;18.20;47.94
40946;BME280;55635;50.264;11.918;2022-07-29T02:03:46;95683.72;;;18.30;47.98
40946;BME280;55635;50.264;11.918;2022-07-29T02:06:29;95680.44;;;18.28;47.57
40946;BME280;55635;50.264;11.918;2022-07-29T02:09:14;95672.97;;;18.30;47.95
40946;BME280;55635;50.264;11.918;2022-07-29T02:11:56;95673.34;;;18.33;47.92
40946;BME280;55635;50.264;11.918;2022-07-29T02:14:43;95665.97;;;18.29;47.83
40946;BME280;55635;50.264;11.918;2022-07-29T02:17:40;95664.34;;;18.28;47.75
40946;BME280;55635;50.264;11.918;2022-07-29T02:20:23;95664.19;;;18.23;47.84
40946;BME280;55635;50.264;11.918;2022-07-29T02:23:07;95656.03;;;18.29;47.75
40946;BME280;55635;50.264;11.918;2022-07-29T02:25:55;95654.53;;;18.22;47.96
40946;BME280;55635;50.264;11.918;2022-07-29T02:28:38;95655.47;;;18.16;48.62
40946;BME280;55635;50.264;11.918;2022-07-29T02:31:23;95661.06;;;18.26;48.04
40946;BME280;55635;50.264;11.918;2022-07-29T02:34:08;95660.59;;;18.29;48.12
40946;BME280;55635;50.264;11.918;2022-07-29T02:36:50;95663.63;;;18.32;48.61
40946;BME280;55635;50.264;11.918;2022-07-29T02:39:31;95667.97;;;18.33;48.50
40946;BME280;55635;50.264;11.918;2022-07-29T02:42:17;95667.38;;;18.43;47.61
40946;BME280;55635;50.264;11.918;2022-07-29T02:44:59;95674.72;;;18.24;48.40
40946;BME280;55635;50.264;11.918;2022-07-29T02:47:47;95671.31;;;18.29;48.93
40946;BME280;55635;50.264;11.918;2022-07-29T02:50:37;95668.88;;;18.27;48.86
40946;BME280;55635;50.264;11.918;2022-07-29T02:53:23;95667.34;;;18.20;49.76
40946;BME280;55635;50.264;11.918;2022-07-29T02:56:11;95675.00;;;18.05;50.21
40946;BME280;55635;50.264;11.918;2022-07-29T02:58:57;95670.84;;;18.09;49.43
40946;BME280;55635;50.264;11.918;2022-07-29T03:01:42;95682.59;;;18.08;49.88
40946;BME280;55635;50.264;11.918;2022-07-29T03:04:25;95677.03;;;18.09;49.32
40946;BME280;55635;50.264;11.918;2022-07-29T03:07:10;95674.16;;;17.92;50.62
40946;BME280;55635;50.264;11.918;2022-07-29T03:09:54;95673.09;;;17.82;50.42
40946;BME280;55635;50.264;11.918;2022-07-29T03:12:36;95675.69;;;17.88;50.17
40946;BME280;55635;50.264;11.918;2022-07-29T03:15:18;95668.69;;;17.87;49.61
40946;BME280;55635;50.264;11.918;2022-07-29T03:18:00;95672.88;;;17.83;49.48
40946;BME280;55635;50.264;11.918;2022-07-29T03:20:41;95667.50;;;17.83;49.77
40946;BME280;55635;50.264;11.918;2022-07-29T03:23:24;95664.88;;;17.65;50.28
40946;BME280;55635;50.264;11.918;2022-07-29T03:26:06;95678.44;;;17.70;49.83
40946;BME280;55635;50.264;11.918;2022-07-29T03:28:47;95670.50;;;17.75;49.64
40946;BME280;55635;50.264;11.918;2022-07-29T03:31:28;95681.13;;;17.70;50.25
40946;BME280;55635;50.264;11.918;2022-07-29T03:34:09;95683.22;;;17.80;49.00
40946;BME280;55635;50.264;11.918;2022-07-29T03:36:50;95676.34;;;17.72;50.01
40946;BME280;55635;50.264;11.918;2022-07-29T03:39:38;95677.75;;;17.75;49.54
40946;BME280;55635;50.264;11.918;2022-07-29T03:42:21;95687.84;;;17.61;50.78
40946;BME280;55635;50.264;11.918;2022-07-29T03:45:09;95683.97;;;17.57;51.21
40946;BME280;55635;50.264;11.918;2022-07-29T03:48:05;95672.63;;;17.55;51.07
40946;BME280;55635;50.264;11.918;2022-07-29T03:50:49;95674.56;;;17.48;50.75
40946;BME280;55635;50.264;11.918;2022-07-29T03:53:31;95676.19;;;17.49;50.53
40946;BME280;55635;50.264;11.918;2022-07-29T03:56:16;95676.97;;;17.56;49.85
40946;BME280;55635;50.264;11.918;2022-07-29T03:58:58;95670.81;;;17.49;50.41
40946;BME280;55635;50.264;11.918;2022-07-29T04:01:41;95676.19;;;17.49;51.75
40946;BME280;55635;50.264;11.918;2022-07-29T04:04:23;95675.16;;;17.50;50.74
40946;BME280;55635;50.264;11.918;2022-07-29T04:07:04;95682.75;;;17.53;49.75
40946;BME280;55635;50.264;11.918;2022-07-29T04:09:45;95680.84;;;17.60;49.88
40946;BME280;55635;50.264;11.918;2022-07-29T04:12:26;95687.06;;;17.72;49.90
40946;BME280;55635;50.264;11.918;2022-07-29T04:15:08;95679.13;;;17.77;49.78
40946;BME280;55635;50.264;11.918;2022-07-29T04:17:49;95681.47;;;17.74;51.75
40946;BME280;55635;50.264;11.918;2022-07-29T04:20:32;95683.34;;;17.73;50.83
40946;BME280;55635;50.264;11.918;2022-07-29T04:23:14;95684.19;;;17.85;49.70
40946;BME280;55635;50.264;11.918;2022-07-29T04:25:55;95688.19;;;17.94;49.18
40946;BME280;55635;50.264;11.918;2022-07-29T04:28:36;95684.56;;;17.59;50.99
40946;BME280;55635;50.264;11.918;2022-07-29T04:31:20;95679.38;;;17.76;51.30
40946;BME280;55635;50.264;11.918;2022-07-29T04:34:01;95684.91;;;17.92;51.69
40946;BME280;55635;50.264;11.918;2022-07-29T04:36:42;95674.91;;;18.00;50.89
40946;BME280;55635;50.264;11.918;2022-07-29T04:39:24;95679.81;;;18.03;50.91
40946;BME280;55635;50.264;11.918;2022-07-29T04:42:05;95690.34;;;18.16;50.43
40946;BME280;55635;50.264;11.918;2022-07-29T04:44:46;95679.72;;;18.21;50.20
40946;BME280;55635;50.264;11.918;2022-07-29T04:47:27;95686.97;;;18.20;51.32
40946;BME280;55635;50.264;11.918;2022-07-29T04:50:09;95688.41;;;18.34;50.58
40946;BME280;55635;50.264;11.918;2022-07-29T04:52:50;95684.75;;;18.29;51.70
40946;BME280;55635;50.264;11.918;2022-07-29T04:55:31;95685.94;;;18.44;51.19
40946;BME280;55635;50.264;11.918;2022-07-29T04:58:12;95678.16;;;18.55;50.68
40946;BME280;55635;50.264;11.918;2022-07-29T05:00:53;95665.31;;;18.57;50.52
40946;BME280;55635;50.264;11.918;2022-07-29T05:03:34;95677.81;;;18.74;50.07
40946;BME280;55635;50.264;11.918;2022-07-29T05:06:16;95675.47;;;18.78;50.38
40946;BME280;55635;50.264;11.918;2022-07-29T05:08:57;95672.56;;;18.79;50.31
40946;BME280;55635;50.264;11.918;2022-07-29T05:11:38;95674.66;;;18.77;50.78
40946;BME280;55635;50.264;11.918;2022-07-29T05:14:19;95678.97;;;18.90;50.59
40946;BME280;55635;50.264;11.918;2022-07-29T05:17:00;95672.06;;;19.06;50.47
40946;BME280;55635;50.264;11.918;2022-07-29T05:19:41;95667.16;;;19.02;49.80
40946;BME280;55635;50.264;11.918;2022-07-29T05:22:22;95677.75;;;19.21;50.81
40946;BME280;55635;50.264;11.918;2022-07-29T05:25:04;95679.47;;;19.27;50.75
40946;BME280;55635;50.264;11.918;2022-07-29T05:27:45;95665.81;;;19.28;51.36
40946;BME280;55635;50.264;11.918;2022-07-29T05:30:26;95676.88;;;19.55;49.46
40946;BME280;55635;50.264;11.918;2022-07-29T05:33:07;95678.03;;;19.59;51.10
40946;BME280;55635;50.264;11.918;2022-07-29T05:35:48;95673.56;;;19.65;49.40
40946;BME280;55635;50.264;11.918;2022-07-29T05:38:29;95679.56;;;19.83;49.67
40946;BME280;55635;50.264;11.918;2022-07-29T05:41:10;95687.72;;;19.88;49.88
40946;BME280;55635;50.264;11.918;2022-07-29T05:43:52;95684.50;;;20.03;49.90
40946;BME280;55635;50.264;11.918;2022-07-29T05:46:33;95684.69;;;20.13;49.04
40946;BME280;55635;50.264;11.918;2022-07-29T05:49:14;95686.84;;;20.28;49.07
40946;BME280;55635;50.264;11.918;2022-07-29T05:51:55;95681.78;;;20.31;49.12
40946;BME280;55635;50.264;11.918;2022-07-29T05:54:36;95682.28;;;20.45;49.66
40946;BME280;55635;50.264;11.918;2022-07-29T05:57:20;95684.50;;;20.48;49.50
40946;BME280;55635;50.264;11.918;2022-07-29T06:00:02;95679.69;;;20.67;48.14
40946;BME280;55635;50.264;11.918;2022-07-29T06:02:53;95678.53;;;20.79;48.10
40946;BME280;55635;50.264;11.918;2022-07-29T06:05:34;95673.13;;;20.79;47.46
40946;BME280;55635;50.264;11.918;2022-07-29T06:08:15;95660.22;;;20.81;47.75
40946;BME280;55635;50.264;11.918;2022-07-29T06:10:56;95669.56;;;20.95;47.92
40946;BME280;55635;50.264;11.918;2022-07-29T06:13:37;95665.44;;;20.88;45.73
40946;BME280;55635;50.264;11.918;2022-07-29T06:16:18;95665.09;;;20.84;45.81
40946;BME280;55635;50.264;11.918;2022-07-29T06:19:00;95666.75;;;20.69;45.28
40946;BME280;55635;50.264;11.918;2022-07-29T06:21:45;95667.03;;;20.89;45.71
40946;BME280;55635;50.264;11.918;2022-07-29T06:24:26;95661.63;;;21.05;45.88
40946;BME280;55635;50.264;11.918;2022-07-29T06:27:07;95664.50;;;21.37;45.19
40946;BME280;55635;50.264;11.918;2022-07-29T06:29:48;95669.63;;;22.09;45.35
40946;BME280;55635;50.264;11.918;2022-07-29T06:32:29;95677.19;;;23.02;42.74
40946;BME280;55635;50.264;11.918;2022-07-29T06:35:11;95666.97;;;23.71;40.59
40946;BME280;55635;50.264;11.918;2022-07-29T06:37:52;95661.59;;;23.81;40.02
40946;BME280;55635;50.264;11.918;2022-07-29T06:40:33;95653.97;;;23.68;39.47
40946;BME280;55635;50.264;11.918;2022-07-29T06:43:37;95662.44;;;23.97;39.84
40946;BME280;55635;50.264;11.918;2022-07-29T06:46:19;95665.13;;;23.82;40.51
40946;BME280;55635;50.264;11.918;2022-07-29T06:49:01;95662.44;;;23.97;40.38
40946;BME280;55635;50.264;11.918;2022-07-29T06:51:42;95660.59;;;24.23;39.63
40946;BME280;55635;50.264;11.918;2022-07-29T06:54:23;95668.44;;;25.15;38.53
40946;BME280;55635;50.264;11.918;2022-07-29T06:57:04;95661.50;;;26.22;37.69
40946;BME280;55635;50.264;11.918;2022-07-29T06:59:45;95668.19;;;27.31;35.42
40946;BME280;55635;50.264;11.918;2022-07-29T07:02:26;95663.56;;;28.40;33.38
40946;BME280;55635;50.264;11.918;2022-07-29T07:05:08;95652.69;;;28.73;31.98
40946;BME280;55635;50.264;11.918;2022-07-29T07:07:49;95648.97;;;28.82;32.04
40946;BME280;55635;50.264;11.918;2022-07-29T07:10:30;95651.50;;;29.79;31.96
40946;BME280;55635;50.264;11.918;2022-07-29T07:13:11;95649.09;;;29.78;30.71
40946;BME280;55635;50.264;11.918;2022-07-29T07:15:52;95652.72;;;30.50;29.57
40946;BME280;55635;50.264;11.918;2022-07-29T07:18:33;95651.97;;;30.80;29.60
40946;BME280;55635;50.264;11.918;2022-07-29T07:21:15;95654.16;;;31.14;28.88
40946;BME280;55635;50.264;11.918;2022-07-29T07:23:56;95645.22;;;31.61;29.43
40946;BME280;55635;50.264;11.918;2022-07-29T07:26:37;95642.47;;;31.61;28.46
40946;BME280;55635;50.264;11.918;2022-07-29T07:29:20;95653.94;;;32.28;28.15
40946;BME280;55635;50.264;11.918;2022-07-29T07:32:01;95646.59;;;31.98;27.47
40946;BME280;55635;50.264;11.918;2022-07-29T07:34:43;95641.53;;;31.74;28.08
40946;BME280;55635;50.264;11.918;2022-07-29T07:37:24;95642.72;;;30.45;30.14
40946;BME280;55635;50.264;11.918;2022-07-29T07:40:07;95632.53;;;30.23;29.79
40946;BME280;55635;50.264;11.918;2022-07-29T07:42:49;95637.59;;;30.52;30.44
40946;BME280;55635;50.264;11.918;2022-07-29T07:45:30;95626.06;;;31.08;29.78
40946;BME280;55635;50.264;11.918;2022-07-29T07:48:13;95632.00;;;30.80;29.52
40946;BME280;55635;50.264;11.918;2022-07-29T07:50:54;95628.56;;;30.30;30.51
40946;BME280;55635;50.264;11.918;2022-07-29T07:53:35;95627.19;;;31.38;29.09
40946;BME280;55635;50.264;11.918;2022-07-29T07:56:17;95627.28;;;32.20;28.73
40946;BME280;55635;50.264;11.918;2022-07-29T07:58:58;95618.59;;;32.44;27.95
40946;BME280;55635;50.264;11.918;2022-07-29T08:01:39;95622.28;;;32.31;29.48
40946;BME280;55635;50.264;11.918;2022-07-29T08:04:20;95621.16;;;32.32;29.46
40946;BME280;55635;50.264;11.918;2022-07-29T08:07:01;95614.06;;;32.74;28.88
40946;BME280;55635;50.264;11.918;2022-07-29T08:09:42;95616.44;;;32.93;28.82
40946;BME280;55635;50.264;11.918;2022-07-29T08:12:23;95611.28;;;32.05;29.59
40946;BME280;55635;50.264;11.918;2022-07-29T08:15:05;95620.00;;;32.84;28.58
40946;BME280;55635;50.264;11.918;2022-07-29T08:17:48;95619.72;;;32.34;29.23
40946;BME280;55635;50.264;11.918;2022-07-29T08:20:29;95617.44;;;32.45;29.23
40946;BME280;55635;50.264;11.918;2022-07-29T08:23:10;95620.13;;;33.05;29.04
40946;BME280;55635;50.264;11.918;2022-07-29T08:25:51;95618.78;;;32.56;28.89
40946;BME280;55635;50.264;11.918;2022-07-29T08:28:32;95612.22;;;31.92;29.71
40946;BME280;55635;50.264;11.918;2022-07-29T08:31:14;95621.34;;;32.61;29.02
40946;BME280;55635;50.264;11.918;2022-07-29T08:33:56;95615.44;;;33.06;28.40
40946;BME280;55635;50.264;11.918;2022-07-29T08:36:37;95617.41;;;32.88;28.62
40946;BME280;55635;50.264;11.918;2022-07-29T08:39:18;95616.00;;;32.05;30.11
40946;BME280;55635;50.264;11.918;2022-07-29T08:41:59;95611.03;;;31.67;30.43
40946;BME280;55635;50.264;11.918;2022-07-29T08:44:40;95613.81;;;32.02;30.45
40946;BME280;55635;50.264;11.918;2022-07-29T08:47:21;95619.72;;;32.43;29.97
40946;BME280;55635;50.264;11.918;2022-07-29T08:50:03;95609.13;;;31.76;30.05
40946;BME280;55635;50.264;11.918;2022-07-29T08:52:44;95611.88;;;32.02;30.44
40946;BME280;55635;50.264;11.918;2022-07-29T08:55:25;95609.16;;;32.02;31.09
40946;BME280;55635;50.264;11.918;2022-07-29T08:58:07;95613.50;;;31.95;30.09
40946;BME280;55635;50.264;11.918;2022-07-29T09:01:02;95607.50;;;30.97;31.30
40946;BME280;55635;50.264;11.918;2022-07-29T09:03:44;95611.03;;;31.28;30.97
40946;BME280;55635;50.264;11.918;2022-07-29T09:06:31;95619.06;;;30.13;32.41
40946;BME280;55635;50.264;11.918;2022-07-29T09:09:14;95615.06;;;30.33;32.47
40946;BME280;55635;50.264;11.918;2022-07-29T09:11:56;95616.69;;;29.71;33.14
40946;BME280;55635;50.264;11.918;2022-07-29T09:14:40;95623.00;;;28.85;34.62
40946;BME280;55635;50.264;11.918;2022-07-29T09:17:57;95625.63;;;28.90;34.19
40946;BME280;55635;50.264;11.918;2022-07-29T09:20:52;95623.22;;;28.88;35.94
40946;BME280;55635;50.264;11.918;2022-07-29T09:24:10;95619.63;;;29.75;34.03
40946;BME280;55635;50.264;11.918;2022-07-29T09:26:51;95610.00;;;30.27;32.53
40946;BME280;55635;50.264;11.918;2022-07-29T09:29:35;95605.84;;;30.73;31.79
40946;BME280;55635;50.264;11.918;2022-07-29T09:32:16;95604.00;;;31.13;31.20
40946;BME280;55635;50.264;11.918;2022-07-29T09:35:18;95596.34;;;31.63;30.81
40946;BME280;55635;50.264;11.918;2022-07-29T09:38:13;95580.03;;;31.19;31.32
40946;BME280;55635;50.264;11.918;2022-07-29T09:41:00;95599.59;;;29.65;33.58
40946;BME280;55635;50.264;11.918;2022-07-29T09:43:59;95597.66;;;29.93;32.81
40946;BME280;55635;50.264;11.918;2022-07-29T09:47:02;95603.88;;;30.43;32.93
40946;BME280;55635;50.264;11.918;2022-07-29T09:49:56;95605.16;;;29.20;33.89
40946;BME280;55635;50.264;11.918;2022-07-29T09:52:50;95604.16;;;29.43;34.94
40946;BME280;55635;50.264;11.918;2022-07-29T09:55:31;95596.25;;;29.14;34.02
40946;BME280;55635;50.264;11.918;2022-07-29T09:58:22;95599.69;;;29.74;33.52
40946;BME280;55635;50.264;11.918;2022-07-29T10:01:03;95601.00;;;30.70;32.53
40946;BME280;55635;50.264;11.918;2022-07-29T10:03:53;95593.53;;;29.55;34.12
40946;BME280;55635;50.264;11.918;2022-07-29T10:06:34;95589.69;;;29.42;34.44
40946;BME280;55635;50.264;11.918;2022-07-29T10:09:16;95586.91;;;30.55;33.05
40946;BME280;55635;50.264;11.918;2022-07-29T10:12:12;95597.53;;;30.79;32.50
40946;BME280;55635;50.264;11.918;2022-07-29T10:14:55;95600.47;;;30.02;33.30
40946;BME280;55635;50.264;11.918;2022-07-29T10:17:36;95592.38;;;29.15;34.92
40946;BME280;55635;50.264;11.918;2022-07-29T10:20:18;95588.97;;;30.13;34.37
40946;BME280;55635;50.264;11.918;2022-07-29T10:23:00;95589.56;;;31.21;31.75
40946;BME280;55635;50.264;11.918;2022-07-29T10:25:41;95585.91;;;31.91;30.46
40946;BME280;55635;50.264;11.918;2022-07-29T10:28:22;95579.53;;;31.56;31.30
40946;BME280;55635;50.264;11.918;2022-07-29T10:31:06;95590.53;;;30.64;34.04
40946;BME280;55635;50.264;11.918;2022-07-29T10:37:33;95588.13;;;29.09;35.15
40946;BME280;55635;50.264;11.918;2022-07-29T10:44:06;95573.38;;;29.64;34.75
40946;BME280;55635;50.264;11.918;2022-07-29T10:46:50;95578.34;;;29.49;35.07
40946;BME280;55635;50.264;11.918;2022-07-29T10:49:31;95576.38;;;29.77;33.85
40946;BME280;55635;50.264;11.918;2022-07-29T10:52:13;95575.41;;;29.59;34.43
40946;BME280;55635;50.264;11.918;2022-07-29T10:54:55;95578.88;;;30.36;33.46
40946;BME280;55635;50.264;11.918;2022-07-29T10:57:39;95578.09;;;29.73;34.93
40946;BME280;55635;50.264;11.918;2022-07-29T11:00:29;95574.03;;;28.75;35.88
40946;BME280;55635;50.264;11.918;2022-07-29T11:03:44;95568.69;;;29.92;33.72
40946;BME280;55635;50.264;11.918;2022-07-29T11:09:39;95564.97;;;29.06;35.60
40946;BME280;55635;50.264;11.918;2022-07-29T11:12:52;95568.09;;;29.54;35.28
40946;BME280;55635;50.264;11.918;2022-07-29T11:15:53;95565.41;;;29.27;35.72
40946;BME280;55635;50.264;11.918;2022-07-29T11:18:35;95569.56;;;29.38;35.58
40946;BME280;55635;50.264;11.918;2022-07-29T11:21:37;95572.19;;;30.95;33.94
40946;BME280;55635;50.264;11.918;2022-07-29T11:24:29;95564.16;;;30.76;33.52
40946;BME280;55635;50.264;11.918;2022-07-29T11:27:17;95585.63;;;30.16;33.65
40946;BME280;55635;50.264;11.918;2022-07-29T11:29:58;95588.75;;;29.60;34.83
40946;BME280;55635;50.264;11.918;2022-07-29T11:32:43;95580.88;;;29.45;35.33
40946;BME280;55635;50.264;11.918;2022-07-29T11:35:25;95571.53;;;29.87;35.25
40946;BME280;55635;50.264;11.918;2022-07-29T11:38:28;95566.81;;;29.52;35.13
40946;BME280;55635;50.264;11.918;2022-07-29T11:41:26;95559.56;;;30.19;34.52
40946;BME280;55635;50.264;11.918;2022-07-29T11:44:07;95559.72;;;30.89;34.08
40946;BME280;55635;50.264;11.918;2022-07-29T11:46:50;95552.56;;;31.02;33.01
40946;BME280;55635;50.264;11.918;2022-07-29T11:49:31;95551.53;;;31.76;32.16
40946;BME280;55635;50.264;11.918;2022-07-29T11:52:13;95541.03;;;31.96;32.24
40946;BME280;55635;50.264;11.918;2022-07-29T11:54:58;95546.53;;;31.31;32.70
40946;BME280;55635;50.264;11.918;2022-07-29T11:57:55;95544.03;;;31.51;32.32
40946;BME280;55635;50.264;11.918;2022-07-29T12:00:40;95537.00;;;31.76;32.14
40946;BME280;55635;50.264;11.918;2022-07-29T12:03:27;95537.34;;;33.07;30.45
40946;BME280;55635;50.264;11.918;2022-07-29T12:06:13;95533.75;;;31.65;31.71
40946;BME280;55635;50.264;11.918;2022-07-29T12:08:54;95540.34;;;30.33;34.05
40946;BME280;55635;50.264;11.918;2022-07-29T12:11:35;95543.91;;;31.17;32.71
40946;BME280;55635;50.264;11.918;2022-07-29T12:14:31;95535.06;;;30.89;32.82
40946;BME280;55635;50.264;11.918;2022-07-29T12:17:33;95538.03;;;29.68;33.98
40946;BME280;55635;50.264;11.918;2022-07-29T12:20:23;95538.97;;;29.09;35.13
40946;BME280;55635;50.264;11.918;2022-07-29T12:23:07;95541.00;;;29.31;35.39
40946;BME280;55635;50.264;11.918;2022-07-29T12:25:49;95558.19;;;28.77;35.48
40946;BME280;55635;50.264;11.918;2022-07-29T12:28:30;95577.50;;;28.29;37.32
40946;BME280;55635;50.264;11.918;2022-07-29T12:31:17;95580.34;;;28.05;37.58
40946;BME280;55635;50.264;11.918;2022-07-29T12:33:58;95597.31;;;27.60;38.84
40946;BME280;55635;50.264;11.918;2022-07-29T12:36:41;95606.09;;;27.76;38.16
40946;BME280;55635;50.264;11.918;2022-07-29T12:39:23;95614.75;;;27.35;37.84
40946;BME280;55635;50.264;11.918;2022-07-29T12:42:14;95627.56;;;26.48;40.34
40946;BME280;55635;50.264;11.918;2022-07-29T12:44:56;95617.28;;;25.58;44.08
40946;BME280;55635;50.264;11.918;2022-07-29T12:47:52;95608.22;;;25.08;46.95
40946;BME280;55635;50.264;11.918;2022-07-29T12:50:35;95624.81;;;24.81;50.83
40946;BME280;55635;50.264;11.918;2022-07-29T12:53:16;95635.91;;;24.09;54.17
40946;BME280;55635;50.264;11.918;2022-07-29T12:55:58;95641.72;;;23.61;55.69
40946;BME280;55635;50.264;11.918;2022-07-29T12:58:42;95648.63;;;23.31;57.77
40946;BME280;55635;50.264;11.918;2022-07-29T13:01:23;95661.22;;;23.06;59.66
40946;BME280;55635;50.264;11.918;2022-07-29T13:04:04;95655.84;;;22.69;62.74
40946;BME280;55635;50.264;11.918;2022-07-29T13:06:45;95647.13;;;22.99;62.55
40946;BME280;55635;50.264;11.918;2022-07-29T13:09:40;95649.75;;;22.52;62.88
40946;BME280;55635;50.264;11.918;2022-07-29T13:12:22;95665.41;;;22.18;64.82
40946;BME280;55635;50.264;11.918;2022-07-29T13:15:14;95661.81;;;22.39;64.45
40946;BME280;55635;50.264;11.918;2022-07-29T13:17:56;95672.41;;;22.46;63.07
40946;BME280;55635;50.264;11.918;2022-07-29T13:20:37;95660.78;;;22.77;64.60
40946;BME280;55635;50.264;11.918;2022-07-29T13:23:18;95658.34;;;23.22;63.57
40946;BME280;55635;50.264;11.918;2022-07-29T13:26:06;95669.22;;;23.33;65.82
40946;BME280;55635;50.264;11.918;2022-07-29T13:28:48;95659.63;;;23.57;63.21
40946;BME280;55635;50.264;11.918;2022-07-29T13:31:29;95656.19;;;23.87;62.64
40946;BME280;55635;50.264;11.918;2022-07-29T13:34:10;95667.00;;;23.87;61.80
40946;BME280;55635;50.264;11.918;2022-07-29T13:36:51;95669.97;;;23.75;62.53
40946;BME280;55635;50.264;11.918;2022-07-29T13:39:33;95669.44;;;23.78;62.00
40946;BME280;55635;50.264;11.918;2022-07-29T13:42:18;95670.00;;;23.95;62.24
40946;BME280;55635;50.264;11.918;2022-07-29T13:44:59;95662.16;;;23.99;60.88
40946;BME280;55635;50.264;11.918;2022-07-29T13:47:41;95659.25;;;24.20;61.17
40946;BME280;55635;50.264;11.918;2022-07-29T13:50:22;95632.69;;;24.22;60.72
40946;BME280;55635;50.264;11.918;2022-07-29T13:53:03;95645.72;;;24.30;59.35
40946;BME280;55635;50.264;11.918;2022-07-29T13:55:44;95643.53;;;24.22;59.51
40946;BME280;55635;50.264;11.918;2022-07-29T13:58:25;95653.00;;;24.20;59.63
40946;BME280;55635;50.264;11.918;2022-07-29T14:01:07;95657.91;;;24.18;59.26
40946;BME280;55635;50.264;11.918;2022-07-29T14:03:47;95650.00;;;24.06;60.28
40946;BME280;55635;50.264;11.918;2022-07-29T14:06:29;95653.50;;;23.97;62.02
40946;BME280;55635;50.264;11.918;2022-07-29T14:09:10;95656.50;;;24.10;59.68
40946;BME280;55635;50.264;11.918;2022-07-29T14:11:51;95653.22;;;23.93;61.73
40946;BME280;55635;50.264;11.918;2022-07-29T14:14:33;95646.38;;;23.65;60.87
40946;BME280;55635;50.264;11.918;2022-07-29T14:17:16;95657.34;;;22.87;65.39
40946;BME280;55635;50.264;11.918;2022-07-29T14:19:57;95648.81;;;23.10;64.87
40946;BME280;55635;50.264;11.918;2022-07-29T14:22:38;95648.41;;;22.54;67.09
40946;BME280;55635;50.264;11.918;2022-07-29T14:25:19;95660.56;;;21.93;69.33
40946;BME280;55635;50.264;11.918;2022-07-29T14:28:00;95664.75;;;21.57;70.91
40946;BME280;55635;50.264;11.918;2022-07-29T14:30:41;95679.25;;;21.30;73.06
40946;BME280;55635;50.264;11.918;2022-07-29T14:33:22;95669.44;;;21.24;74.72
40946;BME280;55635;50.264;11.918;2022-07-29T14:36:04;95675.09;;;21.44;75.89